createdAt,value
2022-12-03T00:03:26.120Z,100421.38
2022-12-03T00:08:27.912Z,100418.03
2022-12-03T00:13:29.604Z,100413.56
2022-12-03T00:18:31.261Z,100410.47
2022-12-03T00:23:37.104Z,100405.44
2022-12-03T00:28:41.913Z,100406.66
2022-12-03T00:33:43.579Z,100399.22
2022-12-03T00:38:45.821Z,100407.16
2022-12-03T00:43:47.863Z,100407.16
2022-12-03T00:48:49.561Z,100401.94
2022-12-03T00:53:51.253Z,100407.53
2022-12-03T00:58:52.995Z,100407.91
2022-12-03T01:03:54.663Z,100417.44
2022-12-03T01:08:56.355Z,100400.16
2022-12-03T01:13:58.044Z,100398.34
2022-12-03T01:18:59.783Z,100397.88
2022-12-03T01:24:01.492Z,100397.13
2022-12-03T01:29:03.952Z,100390.63
2022-12-03T01:34:06.170Z,100389.66
2022-12-03T01:39:07.976Z,100387.97
2022-12-03T01:44:23.278Z,100389.78
2022-12-03T01:49:34.105Z,100389.41
2022-12-03T01:54:43.146Z,100380.13
2022-12-03T01:59:45.123Z,100381.63
2022-12-03T02:04:47.071Z,100389.31
2022-12-03T02:09:48.792Z,100380.97
2022-12-03T02:14:51.373Z,100375.47
2022-12-03T02:19:54.956Z,100384.47
2022-12-03T02:24:59.657Z,100376.47
2022-12-03T02:30:01.322Z,100384.03
2022-12-03T02:35:03.057Z,100375.56
2022-12-03T02:40:10.458Z,100370.94
2022-12-03T02:45:28.432Z,100367.81
2022-12-03T02:50:36.259Z,100375.25
2022-12-03T02:55:38.339Z,100371.56
2022-12-03T03:00:40.337Z,100372.28
2022-12-03T03:05:42.630Z,100371.94
2022-12-03T03:10:44.803Z,100370.00
2022-12-03T03:15:48.187Z,100379.88
2022-12-03T03:20:50.023Z,100377.03
2022-12-03T03:26:08.571Z,100381.16
2022-12-03T03:31:12.710Z,100371.09
2022-12-03T03:36:15.491Z,100374.06
2022-12-03T03:41:18.741Z,100363.31
2022-12-03T03:46:21.949Z,100371.91
2022-12-03T03:51:23.817Z,100372.56
2022-12-03T03:56:25.766Z,100368.59
2022-12-03T04:01:27.880Z,100370.66
2022-12-03T04:06:29.608Z,100367.25
2022-12-03T04:11:49.650Z,100364.25
2022-12-03T04:16:51.409Z,100355.47
2022-12-03T04:22:11.504Z,100355.63
2022-12-03T04:27:31.827Z,100356.41
2022-12-03T04:32:52.202Z,100348.56
2022-12-03T04:37:53.923Z,100356.47
2022-12-03T04:42:55.603Z,100363.09
2022-12-03T04:47:57.356Z,100353.56
2022-12-03T04:52:59.038Z,100355.16
2022-12-03T04:58:00.870Z,100355.38
2022-12-03T05:03:02.690Z,100358.88
2022-12-03T05:08:04.640Z,100356.00
2022-12-03T05:13:06.319Z,100343.53
2022-12-03T05:18:08.081Z,100347.13
2022-12-03T05:23:11.229Z,100341.28
2022-12-03T05:28:12.914Z,100347.78
2022-12-03T05:33:14.684Z,100344.00
2022-12-03T05:38:16.532Z,100333.38
2022-12-03T05:43:18.247Z,100334.09
2022-12-03T05:48:20.044Z,100331.81
2022-12-03T05:53:21.716Z,100335.16
2022-12-03T05:58:23.541Z,100332.75
2022-12-03T06:03:25.383Z,100332.75
2022-12-03T06:08:27.151Z,100330.50
2022-12-03T06:13:28.847Z,100327.66
2022-12-03T06:18:30.542Z,100323.78
2022-12-03T06:23:32.287Z,100334.44
2022-12-03T06:28:33.966Z,100327.84
2022-12-03T06:33:35.699Z,100328.69
2022-12-03T06:38:37.378Z,100335.22
2022-12-03T06:43:39.050Z,100333.47
2022-12-03T06:48:40.735Z,100341.63
2022-12-03T06:53:42.462Z,100342.13
2022-12-03T06:58:44.168Z,100337.75
2022-12-03T07:03:45.864Z,100339.19
2022-12-03T07:08:47.580Z,100341.34
2022-12-03T07:13:49.236Z,100344.09
2022-12-03T07:18:50.976Z,100335.31
2022-12-03T07:23:52.640Z,100338.69
2022-12-03T07:28:54.393Z,100339.00
2022-12-03T07:33:56.132Z,100340.78
2022-12-03T07:38:57.805Z,100339.94
2022-12-03T07:43:59.485Z,100345.69
2022-12-03T07:49:01.199Z,100339.53
2022-12-03T07:54:02.919Z,100335.84
2022-12-03T07:59:04.577Z,100338.75
2022-12-03T08:04:07.242Z,100340.00
2022-12-03T08:09:13.139Z,100341.84
2022-12-03T08:14:32.559Z,100339.50
2022-12-03T08:19:34.226Z,100329.25
2022-12-03T08:24:36.578Z,100315.47
2022-12-03T08:29:38.253Z,100315.16
2022-12-03T08:34:44.070Z,100316.78
2022-12-03T08:39:50.738Z,100312.84
2022-12-03T08:44:52.921Z,100319.66
2022-12-03T08:49:58.264Z,100321.56
2022-12-03T08:55:10.917Z,100331.25
2022-12-03T09:00:24.378Z,100331.16
2022-12-03T09:05:32.535Z,100325.72
2022-12-03T09:10:34.302Z,100329.88
2022-12-03T09:15:35.980Z,100328.22
2022-12-03T09:20:37.718Z,100318.91
2022-12-03T09:25:39.448Z,100329.00
2022-12-03T09:30:41.134Z,100320.41
2022-12-03T09:35:42.820Z,100325.72
2022-12-03T09:40:44.530Z,100318.84
2022-12-03T09:45:47.805Z,100320.13
2022-12-03T09:50:50.708Z,100331.25
2022-12-03T09:55:52.400Z,100320.91
2022-12-03T10:00:54.879Z,100311.31
2022-12-03T10:05:57.722Z,100316.88
2022-12-03T10:10:59.531Z,100312.19
2022-12-03T10:16:01.622Z,100305.69
2022-12-03T10:21:03.461Z,100300.91
2022-12-03T10:26:05.290Z,100291.19
2022-12-03T10:31:09.716Z,100284.28
2022-12-03T10:36:23.450Z,100283.97
2022-12-03T10:41:28.523Z,100292.16
2022-12-03T10:46:30.393Z,100278.91
2022-12-03T10:51:32.226Z,100283.69
2022-12-03T10:56:34.106Z,100278.75
2022-12-03T11:01:35.889Z,100279.22
2022-12-03T11:06:37.645Z,100277.28
2022-12-03T11:11:40.387Z,100277.09
2022-12-03T11:16:41.993Z,100260.44
2022-12-03T11:22:05.491Z,100264.03
2022-12-03T11:27:09.811Z,100260.09
2022-12-03T11:32:11.567Z,100257.31
2022-12-03T11:37:21.952Z,100252.78
2022-12-03T11:42:26.167Z,100241.94
2022-12-03T11:47:27.979Z,100255.81
2022-12-03T11:52:33.069Z,100240.72
2022-12-03T11:57:38.712Z,100238.25
2022-12-03T12:02:40.461Z,100242.81
2022-12-03T12:07:42.525Z,100229.66
2022-12-03T12:12:54.347Z,100237.41
2022-12-03T12:17:56.665Z,100228.97
2022-12-03T12:23:27.913Z,100229.59
2022-12-03T12:28:29.574Z,100221.47
2022-12-03T12:33:33.239Z,100205.34
2022-12-03T12:38:34.912Z,100203.59
2022-12-03T12:43:38.848Z,100196.56
2022-12-03T12:48:40.563Z,100194.22
2022-12-03T12:53:45.087Z,100181.13
2022-12-03T12:58:46.806Z,100175.31
2022-12-03T13:03:51.539Z,100178.72
2022-12-03T13:08:54.062Z,100181.72
2022-12-03T13:13:56.115Z,100170.78
2022-12-03T13:19:01.708Z,100177.47
2022-12-03T13:24:25.934Z,100162.34
2022-12-03T13:29:27.968Z,100165.53
2022-12-03T13:34:33.678Z,100171.47
2022-12-03T13:39:38.104Z,100167.06
2022-12-03T13:44:45.479Z,100173.56
2022-12-03T13:50:03.549Z,100170.25
2022-12-03T13:55:07.227Z,100167.28
2022-12-03T14:00:09.459Z,100167.41
2022-12-03T14:05:14.466Z,100161.13
2022-12-03T14:10:16.906Z,100169.09
2022-12-03T14:15:18.572Z,100160.75
2022-12-03T14:20:21.037Z,100161.56
2022-12-03T14:25:22.720Z,100158.78
2022-12-03T14:30:24.423Z,100158.38
2022-12-03T14:35:26.236Z,100156.88
2022-12-03T14:40:27.905Z,100147.91
2022-12-03T14:45:30.084Z,100157.94
2022-12-03T14:50:31.830Z,100163.69
2022-12-03T14:55:33.498Z,100162.63
2022-12-03T15:00:35.210Z,100155.19
2022-12-03T15:05:36.859Z,100160.81
2022-12-03T15:10:38.548Z,100160.88
2022-12-03T15:15:40.214Z,100159.91
2022-12-03T15:20:41.869Z,100162.66
2022-12-03T15:25:43.678Z,100149.66
2022-12-03T15:30:45.449Z,100159.97
2022-12-03T15:35:47.407Z,100158.94
2022-12-03T15:40:49.128Z,100157.44
2022-12-03T15:45:50.821Z,100154.25
2022-12-03T15:50:52.511Z,100148.19
2022-12-03T15:55:54.207Z,100146.38
2022-12-03T16:00:55.977Z,100153.25
2022-12-03T16:05:57.653Z,100159.66
2022-12-03T16:10:59.324Z,100151.53
2022-12-03T16:16:01.168Z,100149.75
2022-12-03T16:21:02.915Z,100146.88
2022-12-03T16:26:04.659Z,100145.56
2022-12-03T16:31:06.390Z,100143.81
2022-12-03T16:36:08.522Z,100142.16
2022-12-03T16:41:10.194Z,100132.75
2022-12-03T16:46:14.773Z,100145.16
2022-12-03T16:51:17.062Z,100134.75
2022-12-03T16:56:19.115Z,100142.72
2022-12-03T17:01:20.863Z,100136.22
2022-12-03T17:06:22.592Z,100128.84
2022-12-03T17:11:24.254Z,100138.31
2022-12-03T17:16:26.024Z,100132.03
2022-12-03T17:21:30.857Z,100133.34
2022-12-03T17:26:35.399Z,100132.81
2022-12-03T17:31:41.610Z,100125.44
2022-12-03T17:36:44.027Z,100125.56
2022-12-03T17:41:45.739Z,100116.91
2022-12-03T17:46:47.507Z,100114.38
2022-12-03T17:51:49.263Z,100098.72
2022-12-03T17:56:50.981Z,100114.44
2022-12-03T18:01:52.784Z,100105.72
2022-12-03T18:07:00.514Z,100102.66
2022-12-03T18:12:03.953Z,100105.84
2022-12-03T18:17:05.930Z,100098.78
2022-12-03T18:22:07.826Z,100098.31
2022-12-03T18:27:09.602Z,100102.47
2022-12-03T18:32:27.204Z,100104.28
2022-12-03T18:37:32.032Z,100107.13
2022-12-03T18:42:33.719Z,100111.22
2022-12-03T18:47:35.526Z,100100.53
2022-12-03T18:52:37.525Z,100105.03
2022-12-03T18:57:39.244Z,100099.72
2022-12-03T19:08:04.059Z,100096.81
2022-12-03T19:13:05.824Z,100103.00
2022-12-03T19:18:07.584Z,100104.28
2022-12-03T19:23:10.145Z,100099.06
2022-12-03T19:28:11.851Z,100096.16
2022-12-03T19:33:17.917Z,100099.72
2022-12-03T19:38:20.080Z,100104.22
2022-12-03T19:43:21.765Z,100099.94
2022-12-03T19:48:23.477Z,100106.06
2022-12-03T19:53:26.979Z,100103.91
2022-12-03T19:58:28.675Z,100100.53
2022-12-03T20:03:30.351Z,100103.09
2022-12-03T20:08:32.425Z,100106.38
2022-12-03T20:13:36.528Z,100095.03
2022-12-03T20:18:41.780Z,100103.16
2022-12-03T20:23:43.779Z,100103.66
2022-12-03T20:28:47.927Z,100093.56
2022-12-03T20:33:52.353Z,100098.59
2022-12-03T20:38:59.196Z,100096.19
2022-12-03T20:44:00.920Z,100084.84
2022-12-03T20:49:03.103Z,100089.59
2022-12-03T20:54:04.867Z,100077.72
2022-12-03T20:59:10.371Z,100078.22
2022-12-03T21:04:16.217Z,100082.66
2022-12-03T21:09:17.961Z,100078.31
2022-12-03T21:14:19.651Z,100082.22
2022-12-03T21:19:21.956Z,100072.63
2022-12-03T21:24:23.721Z,100073.84
2022-12-03T21:29:25.440Z,100068.16
2022-12-03T21:34:31.316Z,100063.03
2022-12-03T21:39:37.554Z,100061.28
2022-12-03T21:44:39.229Z,100072.22
2022-12-03T21:49:41.066Z,100071.03
2022-12-03T21:54:42.732Z,100072.25
2022-12-03T21:59:45.372Z,100067.25
2022-12-03T22:04:50.407Z,100074.16
2022-12-03T22:09:52.418Z,100075.88
2022-12-03T22:14:57.109Z,100070.94
2022-12-03T22:19:58.803Z,100060.00
2022-12-03T22:25:00.520Z,100070.38
2022-12-03T22:30:03.298Z,100067.41
2022-12-03T22:35:05.423Z,100064.38
2022-12-03T22:40:07.434Z,100070.63
2022-12-03T22:45:09.471Z,100063.34
2022-12-03T22:50:11.340Z,100052.41
2022-12-03T22:55:13.014Z,100051.03
2022-12-03T23:00:15.446Z,100047.69
2022-12-03T23:05:17.116Z,100040.31
2022-12-03T23:10:18.792Z,100028.72
2022-12-03T23:15:20.488Z,100026.19
2022-12-03T23:20:22.694Z,100023.25
2022-12-03T23:25:24.452Z,100018.13
2022-12-03T23:30:26.253Z,100018.22
2022-12-03T23:35:27.912Z,100012.69
2022-12-03T23:40:29.614Z,100007.75
2022-12-03T23:45:33.186Z,100007.19
2022-12-03T23:50:34.981Z,100009.03
2022-12-03T23:55:39.887Z,100012.44
